sensor_id;sensor_type;location;lat;lon;timestamp;pressure;altitude;pressure_sealevel;temperature;humidity
47883;BME280;37739;50.350;7.578;2023-03-01T00:02:16;100912.78;;;0.99;58.42
47883;BME280;37739;50.350;7.578;2023-03-01T00:04:41;100906.53;;;0.95;58.07
47883;BME280;37739;50.350;7.578;2023-03-01T00:07:07;100896.66;;;1.16;57.33
47883;BME280;37739;50.350;7.578;2023-03-01T00:09:32;100890.03;;;1.27;56.67
47883;BME280;37739;50.350;7.578;2023-03-01T00:11:57;100898.00;;;1.12;57.36
47883;BME280;37739;50.350;7.578;2023-03-01T00:14:22;100893.34;;;1.17;57.67
47883;BME280;37739;50.350;7.578;2023-03-01T00:16:51;100895.56;;;1.23;57.50
47883;BME280;37739;50.350;7.578;2023-03-01T00:19:20;100900.94;;;1.17;57.88
47883;BME280;37739;50.350;7.578;2023-03-01T00:21:48;100904.41;;;1.09;58.27
47883;BME280;37739;50.350;7.578;2023-03-01T00:24:16;100906.94;;;1.09;58.52
47883;BME280;37739;50.350;7.578;2023-03-01T00:26:42;100912.84;;;1.18;57.99
47883;BME280;37739;50.350;7.578;2023-03-01T00:29:07;100911.97;;;1.17;57.95
47883;BME280;37739;50.350;7.578;2023-03-01T00:31:33;100908.38;;;1.15;58.70
47883;BME280;37739;50.350;7.578;2023-03-01T00:34:03;100910.09;;;0.97;58.60
47883;BME280;37739;50.350;7.578;2023-03-01T00:36:32;100907.25;;;1.03;58.24
47883;BME280;37739;50.350;7.578;2023-03-01T00:38:58;100903.53;;;1.08;58.29
47883;BME280;37739;50.350;7.578;2023-03-01T00:41:24;100899.22;;;1.07;57.77
47883;BME280;37739;50.350;7.578;2023-03-01T00:43:54;100901.88;;;1.09;58.18
47883;BME280;37739;50.350;7.578;2023-03-01T00:46:23;100901.91;;;1.00;58.76
47883;BME280;37739;50.350;7.578;2023-03-01T00:48:51;100906.84;;;0.98;58.57
47883;BME280;37739;50.350;7.578;2023-03-01T00:51:25;100905.81;;;0.96;58.23
47883;BME280;37739;50.350;7.578;2023-03-01T00:53:56;100908.28;;;0.69;60.13
47883;BME280;37739;50.350;7.578;2023-03-01T00:56:21;100908.13;;;0.67;59.91
47883;BME280;37739;50.350;7.578;2023-03-01T00:58:47;100901.94;;;0.64;60.24
47883;BME280;37739;50.350;7.578;2023-03-01T01:01:22;100902.75;;;0.82;59.32
47883;BME280;37739;50.350;7.578;2023-03-01T01:03:56;100891.69;;;0.98;58.54
47883;BME280;37739;50.350;7.578;2023-03-01T01:06:33;100888.56;;;0.92;58.65
47883;BME280;37739;50.350;7.578;2023-03-01T01:09:03;100895.59;;;0.86;59.18
47883;BME280;37739;50.350;7.578;2023-03-01T01:11:31;100899.19;;;0.80;59.32
47883;BME280;37739;50.350;7.578;2023-03-01T01:13:57;100892.03;;;0.84;59.34
47883;BME280;37739;50.350;7.578;2023-03-01T01:16:24;100885.94;;;0.82;59.61
47883;BME280;37739;50.350;7.578;2023-03-01T01:18:51;100874.16;;;0.91;59.37
47883;BME280;37739;50.350;7.578;2023-03-01T01:21:23;100880.88;;;0.91;58.92
47883;BME280;37739;50.350;7.578;2023-03-01T01:23:49;100873.41;;;0.92;59.53
47883;BME280;37739;50.350;7.578;2023-03-01T01:26:23;100876.13;;;0.85;59.48
47883;BME280;37739;50.350;7.578;2023-03-01T01:28:50;100880.16;;;0.83;59.60
47883;BME280;37739;50.350;7.578;2023-03-01T01:31:18;100876.41;;;0.88;58.88
47883;BME280;37739;50.350;7.578;2023-03-01T01:33:44;100882.22;;;0.87;59.54
47883;BME280;37739;50.350;7.578;2023-03-01T01:36:10;100881.03;;;0.84;59.23
47883;BME280;37739;50.350;7.578;2023-03-01T01:38:37;100881.22;;;0.76;59.43
47883;BME280;37739;50.350;7.578;2023-03-01T01:41:03;100882.16;;;0.59;59.91
47883;BME280;37739;50.350;7.578;2023-03-01T01:43:33;100881.25;;;0.68;59.95
47883;BME280;37739;50.350;7.578;2023-03-01T01:46:04;100872.34;;;0.63;60.60
47883;BME280;37739;50.350;7.578;2023-03-01T01:48:40;100880.03;;;0.73;60.20
47883;BME280;37739;50.350;7.578;2023-03-01T01:51:11;100872.91;;;0.77;59.78
47883;BME280;37739;50.350;7.578;2023-03-01T01:53:40;100877.34;;;0.80;60.16
47883;BME280;37739;50.350;7.578;2023-03-01T01:56:10;100877.81;;;0.76;60.78
47883;BME280;37739;50.350;7.578;2023-03-01T01:58:38;100872.66;;;0.57;61.06
47883;BME280;37739;50.350;7.578;2023-03-01T02:01:09;100867.75;;;0.58;60.64
47883;BME280;37739;50.350;7.578;2023-03-01T02:03:37;100859.09;;;0.65;60.65
47883;BME280;37739;50.350;7.578;2023-03-01T02:06:15;100865.91;;;0.30;60.81
47883;BME280;37739;50.350;7.578;2023-03-01T02:08:48;100856.13;;;0.33;61.58
47883;BME280;37739;50.350;7.578;2023-03-01T02:11:19;100854.78;;;0.28;61.29
47883;BME280;37739;50.350;7.578;2023-03-01T02:13:50;100860.88;;;0.21;62.05
47883;BME280;37739;50.350;7.578;2023-03-01T02:16:16;100855.81;;;0.30;61.56
47883;BME280;37739;50.350;7.578;2023-03-01T02:18:45;100855.47;;;0.44;61.38
47883;BME280;37739;50.350;7.578;2023-03-01T02:22:22;100847.56;;;0.58;60.63
47883;BME280;37739;50.350;7.578;2023-03-01T02:26:51;100837.72;;;0.70;59.98
47883;BME280;37739;50.350;7.578;2023-03-01T02:29:18;100844.38;;;0.33;60.97
47883;BME280;37739;50.350;7.578;2023-03-01T02:31:43;100844.94;;;0.48;60.14
47883;BME280;37739;50.350;7.578;2023-03-01T02:34:17;100845.59;;;0.65;60.10
47883;BME280;37739;50.350;7.578;2023-03-01T02:36:55;100840.59;;;0.56;60.41
47883;BME280;37739;50.350;7.578;2023-03-01T02:39:28;100832.56;;;0.60;60.40
47883;BME280;37739;50.350;7.578;2023-03-01T02:41:57;100831.78;;;0.61;60.52
47883;BME280;37739;50.350;7.578;2023-03-01T02:44:24;100828.28;;;0.50;61.04
47883;BME280;37739;50.350;7.578;2023-03-01T02:46:54;100834.03;;;0.22;61.66
47883;BME280;37739;50.350;7.578;2023-03-01T02:49:35;100832.22;;;0.29;61.64
47883;BME280;37739;50.350;7.578;2023-03-01T02:57:38;100821.88;;;0.17;62.23
47883;BME280;37739;50.350;7.578;2023-03-01T03:00:12;100819.47;;;0.19;62.54
47883;BME280;37739;50.350;7.578;2023-03-01T03:02:45;100817.41;;;0.15;62.53
47883;BME280;37739;50.350;7.578;2023-03-01T03:05:17;100818.94;;;-0.13;63.41
47883;BME280;37739;50.350;7.578;2023-03-01T03:07:45;100814.78;;;-0.22;63.88
47883;BME280;37739;50.350;7.578;2023-03-01T03:10:16;100812.16;;;-0.23;64.07
47883;BME280;37739;50.350;7.578;2023-03-01T03:12:50;100813.28;;;-0.20;64.55
47883;BME280;37739;50.350;7.578;2023-03-01T03:15:16;100812.41;;;-0.11;64.26
47883;BME280;37739;50.350;7.578;2023-03-01T03:17:43;100816.13;;;-0.16;63.76
47883;BME280;37739;50.350;7.578;2023-03-01T03:20:10;100812.25;;;-0.22;64.36
47883;BME280;37739;50.350;7.578;2023-03-01T03:22:40;100810.63;;;-0.12;64.39
47883;BME280;37739;50.350;7.578;2023-03-01T03:25:08;100800.06;;;-0.08;63.50
47883;BME280;37739;50.350;7.578;2023-03-01T03:27:37;100801.56;;;-0.10;63.79
47883;BME280;37739;50.350;7.578;2023-03-01T03:30:09;100803.22;;;-0.20;64.11
47883;BME280;37739;50.350;7.578;2023-03-01T03:32:39;100803.97;;;-0.21;64.61
47883;BME280;37739;50.350;7.578;2023-03-01T03:35:11;100795.66;;;-0.28;65.02
47883;BME280;37739;50.350;7.578;2023-03-01T03:37:42;100786.94;;;-0.49;64.78
47883;BME280;37739;50.350;7.578;2023-03-01T03:40:27;100797.31;;;-0.46;65.31
47883;BME280;37739;50.350;7.578;2023-03-01T03:42:54;100793.59;;;-0.41;64.88
47883;BME280;37739;50.350;7.578;2023-03-01T03:45:22;100784.56;;;-0.30;64.72
47883;BME280;37739;50.350;7.578;2023-03-01T03:47:52;100781.72;;;-0.33;64.54
47883;BME280;37739;50.350;7.578;2023-03-01T03:50:21;100768.38;;;-0.41;63.79
47883;BME280;37739;50.350;7.578;2023-03-01T03:52:47;100764.69;;;-0.53;64.75
47883;BME280;37739;50.350;7.578;2023-03-01T03:55:12;100766.13;;;-0.29;64.21
47883;BME280;37739;50.350;7.578;2023-03-01T03:57:39;100758.72;;;-0.19;63.75
47883;BME280;37739;50.350;7.578;2023-03-01T04:00:07;100749.97;;;-0.23;64.24
47883;BME280;37739;50.350;7.578;2023-03-01T04:02:42;100743.91;;;-0.33;64.45
47883;BME280;37739;50.350;7.578;2023-03-01T04:05:09;100748.91;;;-0.16;63.81
47883;BME280;37739;50.350;7.578;2023-03-01T04:07:38;100749.41;;;-0.37;64.67
47883;BME280;37739;50.350;7.578;2023-03-01T04:10:09;100742.13;;;-0.43;64.87
47883;BME280;37739;50.350;7.578;2023-03-01T04:12:35;100746.88;;;-0.29;63.82
47883;BME280;37739;50.350;7.578;2023-03-01T04:15:07;100752.34;;;-0.24;63.66
47883;BME280;37739;50.350;7.578;2023-03-01T04:17:50;100758.56;;;-0.29;64.18
47883;BME280;37739;50.350;7.578;2023-03-01T04:20:18;100755.47;;;-0.35;64.23
47883;BME280;37739;50.350;7.578;2023-03-01T04:23:03;100756.22;;;-0.45;64.41
47883;BME280;37739;50.350;7.578;2023-03-01T04:25:56;100764.94;;;-0.33;64.13
47883;BME280;37739;50.350;7.578;2023-03-01T04:28:36;100748.06;;;-0.34;64.43
47883;BME280;37739;50.350;7.578;2023-03-01T04:31:08;100760.66;;;-0.43;65.30
47883;BME280;37739;50.350;7.578;2023-03-01T04:33:51;100751.91;;;-0.37;65.25
47883;BME280;37739;50.350;7.578;2023-03-01T04:36:18;100762.16;;;-0.36;64.91
47883;BME280;37739;50.350;7.578;2023-03-01T04:38:44;100768.53;;;-0.31;65.35
47883;BME280;37739;50.350;7.578;2023-03-01T04:41:19;100759.91;;;-0.33;65.41
47883;BME280;37739;50.350;7.578;2023-03-01T04:43:47;100761.69;;;-0.41;65.83
47883;BME280;37739;50.350;7.578;2023-03-01T04:46:17;100761.69;;;-0.41;65.25
47883;BME280;37739;50.350;7.578;2023-03-01T04:48:46;100763.19;;;-0.34;64.63
47883;BME280;37739;50.350;7.578;2023-03-01T04:51:12;100760.06;;;-0.31;64.86
47883;BME280;37739;50.350;7.578;2023-03-01T04:53:42;100770.16;;;-0.31;64.77
47883;BME280;37739;50.350;7.578;2023-03-01T04:56:07;100769.59;;;-0.46;65.50
47883;BME280;37739;50.350;7.578;2023-03-01T04:58:33;100767.81;;;-0.65;66.46
47883;BME280;37739;50.350;7.578;2023-03-01T05:00:58;100771.69;;;-0.77;66.76
47883;BME280;37739;50.350;7.578;2023-03-01T05:03:26;100774.31;;;-0.84;67.48
47883;BME280;37739;50.350;7.578;2023-03-01T05:05:58;100777.59;;;-0.76;66.47
47883;BME280;37739;50.350;7.578;2023-03-01T05:08:24;100782.31;;;-0.80;67.04
47883;BME280;37739;50.350;7.578;2023-03-01T05:10:52;100781.75;;;-0.77;66.98
47883;BME280;37739;50.350;7.578;2023-03-01T05:13:20;100773.88;;;-0.71;66.99
47883;BME280;37739;50.350;7.578;2023-03-01T05:15:58;100774.63;;;-0.55;65.89
47883;BME280;37739;50.350;7.578;2023-03-01T05:18:24;100778.91;;;-0.45;65.61
47883;BME280;37739;50.350;7.578;2023-03-01T05:20:54;100770.47;;;-0.46;65.56
47883;BME280;37739;50.350;7.578;2023-03-01T05:23:21;100773.75;;;-0.55;66.07
47883;BME280;37739;50.350;7.578;2023-03-01T05:25:47;100768.84;;;-0.54;65.90
47883;BME280;37739;50.350;7.578;2023-03-01T05:28:18;100758.75;;;-0.45;65.42
47883;BME280;37739;50.350;7.578;2023-03-01T05:30:45;100766.34;;;-0.54;66.06
47883;BME280;37739;50.350;7.578;2023-03-01T05:33:11;100761.72;;;-0.75;66.59
47883;BME280;37739;50.350;7.578;2023-03-01T05:35:39;100760.09;;;-0.84;66.97
47883;BME280;37739;50.350;7.578;2023-03-01T05:38:09;100763.38;;;-0.85;67.15
47883;BME280;37739;50.350;7.578;2023-03-01T05:40:38;100763.06;;;-0.88;67.10
47883;BME280;37739;50.350;7.578;2023-03-01T05:43:09;100756.25;;;-0.80;66.86
47883;BME280;37739;50.350;7.578;2023-03-01T05:45:37;100762.91;;;-0.72;66.41
47883;BME280;37739;50.350;7.578;2023-03-01T05:48:03;100768.25;;;-0.69;66.07
47883;BME280;37739;50.350;7.578;2023-03-01T05:50:33;100762.94;;;-0.63;65.85
47883;BME280;37739;50.350;7.578;2023-03-01T05:53:06;100762.78;;;-0.65;65.67
47883;BME280;37739;50.350;7.578;2023-03-01T05:55:33;100757.28;;;-0.78;66.79
47883;BME280;37739;50.350;7.578;2023-03-01T05:58:03;100756.69;;;-0.75;65.93
47883;BME280;37739;50.350;7.578;2023-03-01T06:00:30;100751.19;;;-0.71;65.85
47883;BME280;37739;50.350;7.578;2023-03-01T06:03:00;100751.66;;;-0.67;65.84
47883;BME280;37739;50.350;7.578;2023-03-01T06:05:27;100750.91;;;-0.66;65.64
47883;BME280;37739;50.350;7.578;2023-03-01T06:07:53;100741.25;;;-0.70;66.13
47883;BME280;37739;50.350;7.578;2023-03-01T06:10:22;100741.28;;;-0.78;66.45
47883;BME280;37739;50.350;7.578;2023-03-01T06:12:47;100747.50;;;-0.75;66.24
47883;BME280;37739;50.350;7.578;2023-03-01T06:15:14;100746.16;;;-0.71;66.78
47883;BME280;37739;50.350;7.578;2023-03-01T06:17:44;100741.00;;;-0.73;66.65
47883;BME280;37739;50.350;7.578;2023-03-01T06:22:37;100734.63;;;-0.69;65.69
47883;BME280;37739;50.350;7.578;2023-03-01T06:25:07;100736.22;;;-0.70;65.64
47883;BME280;37739;50.350;7.578;2023-03-01T06:27:35;100736.69;;;-0.74;65.71
47883;BME280;37739;50.350;7.578;2023-03-01T06:30:01;100745.41;;;-0.79;66.90
47883;BME280;37739;50.350;7.578;2023-03-01T06:32:26;100743.81;;;-0.78;66.65
47883;BME280;37739;50.350;7.578;2023-03-01T06:34:52;100740.25;;;-0.81;66.64
47883;BME280;37739;50.350;7.578;2023-03-01T06:37:17;100739.94;;;-0.92;66.90
47883;BME280;37739;50.350;7.578;2023-03-01T06:39:44;100734.47;;;-0.88;67.14
47883;BME280;37739;50.350;7.578;2023-03-01T06:42:10;100741.41;;;-0.94;67.61
47883;BME280;37739;50.350;7.578;2023-03-01T06:44:36;100748.06;;;-0.95;67.54
47883;BME280;37739;50.350;7.578;2023-03-01T06:47:02;100739.94;;;-0.84;67.19
47883;BME280;37739;50.350;7.578;2023-03-01T06:49:28;100745.84;;;-0.83;67.62
47883;BME280;37739;50.350;7.578;2023-03-01T06:51:54;100747.78;;;-0.98;68.09
47883;BME280;37739;50.350;7.578;2023-03-01T06:54:19;100745.84;;;-1.01;68.76
47883;BME280;37739;50.350;7.578;2023-03-01T06:56:47;100752.38;;;-0.94;69.15
47883;BME280;37739;50.350;7.578;2023-03-01T06:59:16;100756.97;;;-0.90;68.97
47883;BME280;37739;50.350;7.578;2023-03-01T07:01:41;100752.25;;;-0.95;68.99
47883;BME280;37739;50.350;7.578;2023-03-01T07:04:10;100752.53;;;-1.01;69.17
47883;BME280;37739;50.350;7.578;2023-03-01T07:06:35;100759.44;;;-1.16;70.06
47883;BME280;37739;50.350;7.578;2023-03-01T07:09:01;100757.84;;;-1.15;70.20
47883;BME280;37739;50.350;7.578;2023-03-01T07:11:28;100758.72;;;-1.15;69.41
47883;BME280;37739;50.350;7.578;2023-03-01T07:13:56;100756.66;;;-1.19;69.69
47883;BME280;37739;50.350;7.578;2023-03-01T07:16:22;100751.75;;;-1.17;69.53
47883;BME280;37739;50.350;7.578;2023-03-01T07:18:47;100745.97;;;-1.16;69.95
47883;BME280;37739;50.350;7.578;2023-03-01T07:21:14;100741.84;;;-0.99;69.31
47883;BME280;37739;50.350;7.578;2023-03-01T07:23:39;100745.28;;;-0.89;68.83
47883;BME280;37739;50.350;7.578;2023-03-01T07:26:07;100749.88;;;-0.85;68.73
47883;BME280;37739;50.350;7.578;2023-03-01T07:28:35;100740.69;;;-0.76;68.45
47883;BME280;37739;50.350;7.578;2023-03-01T07:31:05;100742.16;;;-0.78;68.34
47883;BME280;37739;50.350;7.578;2023-03-01T07:33:35;100730.59;;;-0.76;67.97
47883;BME280;37739;50.350;7.578;2023-03-01T07:36:03;100727.34;;;-0.66;68.03
47883;BME280;37739;50.350;7.578;2023-03-01T07:38:28;100730.31;;;-0.70;67.74
47883;BME280;37739;50.350;7.578;2023-03-01T07:40:58;100724.66;;;-0.68;67.11
47883;BME280;37739;50.350;7.578;2023-03-01T07:43:24;100726.16;;;-0.61;66.78
47883;BME280;37739;50.350;7.578;2023-03-01T07:45:49;100724.66;;;-0.59;66.87
47883;BME280;37739;50.350;7.578;2023-03-01T07:48:14;100722.03;;;-0.69;66.85
47883;BME280;37739;50.350;7.578;2023-03-01T07:50:42;100733.72;;;-0.61;67.38
47883;BME280;37739;50.350;7.578;2023-03-01T07:53:10;100741.53;;;-0.41;66.53
47883;BME280;37739;50.350;7.578;2023-03-01T07:55:36;100740.19;;;-0.28;66.55
47883;BME280;37739;50.350;7.578;2023-03-01T07:58:01;100732.47;;;-0.21;65.90
47883;BME280;37739;50.350;7.578;2023-03-01T08:00:26;100732.00;;;-0.17;66.20
47883;BME280;37739;50.350;7.578;2023-03-01T08:02:54;100730.72;;;-0.31;66.76
47883;BME280;37739;50.350;7.578;2023-03-01T08:05:22;100728.94;;;-0.41;67.60
47883;BME280;37739;50.350;7.578;2023-03-01T08:07:49;100735.34;;;-0.53;67.31
47883;BME280;37739;50.350;7.578;2023-03-01T08:10:17;100738.88;;;-0.42;66.99
47883;BME280;37739;50.350;7.578;2023-03-01T08:12:42;100735.16;;;-0.37;67.32
47883;BME280;37739;50.350;7.578;2023-03-01T08:15:11;100731.31;;;-0.51;68.06
47883;BME280;37739;50.350;7.578;2023-03-01T08:17:36;100728.81;;;-0.51;69.13
47883;BME280;37739;50.350;7.578;2023-03-01T08:20:02;100724.22;;;-0.55;69.09
47883;BME280;37739;50.350;7.578;2023-03-01T08:22:29;100728.38;;;-0.55;69.75
47883;BME280;37739;50.350;7.578;2023-03-01T08:24:56;100725.97;;;-0.45;69.11
47883;BME280;37739;50.350;7.578;2023-03-01T08:27:24;100728.50;;;-0.45;69.11
47883;BME280;37739;50.350;7.578;2023-03-01T08:29:52;100726.81;;;-0.27;68.51
47883;BME280;37739;50.350;7.578;2023-03-01T08:32:17;100715.13;;;-0.27;68.04
47883;BME280;37739;50.350;7.578;2023-03-01T08:34:48;100709.22;;;-0.36;67.30
47883;BME280;37739;50.350;7.578;2023-03-01T08:37:13;100716.63;;;-0.37;67.92
47883;BME280;37739;50.350;7.578;2023-03-01T08:39:41;100719.56;;;-0.33;68.29
47883;BME280;37739;50.350;7.578;2023-03-01T08:42:11;100716.44;;;-0.22;68.14
47883;BME280;37739;50.350;7.578;2023-03-01T08:44:39;100714.34;;;-0.17;67.37
47883;BME280;37739;50.350;7.578;2023-03-01T08:47:04;100725.03;;;-0.20;67.82
47883;BME280;37739;50.350;7.578;2023-03-01T08:49:32;100718.94;;;-0.22;67.77
47883;BME280;37739;50.350;7.578;2023-03-01T08:51:57;100726.19;;;-0.07;67.74
47883;BME280;37739;50.350;7.578;2023-03-01T08:54:25;100716.59;;;0.16;66.84
47883;BME280;37739;50.350;7.578;2023-03-01T08:56:53;100715.34;;;0.30;67.08
47883;BME280;37739;50.350;7.578;2023-03-01T08:59:18;100704.84;;;0.53;65.61
47883;BME280;37739;50.350;7.578;2023-03-01T09:01:46;100691.41;;;0.63;66.19
47883;BME280;37739;50.350;7.578;2023-03-01T09:04:13;100694.63;;;0.71;65.36
47883;BME280;37739;50.350;7.578;2023-03-01T09:06:39;100697.59;;;0.75;64.60
47883;BME280;37739;50.350;7.578;2023-03-01T09:09:05;100697.16;;;0.90;63.92
47883;BME280;37739;50.350;7.578;2023-03-01T09:11:33;100695.94;;;0.95;63.65
47883;BME280;37739;50.350;7.578;2023-03-01T09:13:59;100694.50;;;1.07;62.67
47883;BME280;37739;50.350;7.578;2023-03-01T09:16:24;100682.47;;;1.24;63.12
47883;BME280;37739;50.350;7.578;2023-03-01T09:18:53;100682.88;;;1.28;61.89
47883;BME280;37739;50.350;7.578;2023-03-01T09:21:20;100682.09;;;1.48;61.65
47883;BME280;37739;50.350;7.578;2023-03-01T09:23:48;100668.47;;;1.56;61.37
47883;BME280;37739;50.350;7.578;2023-03-01T09:26:20;100668.84;;;1.61;60.44
47883;BME280;37739;50.350;7.578;2023-03-01T09:28:50;100668.72;;;1.89;60.28
47883;BME280;37739;50.350;7.578;2023-03-01T09:31:18;100680.28;;;2.16;59.94
47883;BME280;37739;50.350;7.578;2023-03-01T09:33:48;100672.19;;;2.30;59.99
47883;BME280;37739;50.350;7.578;2023-03-01T09:36:17;100671.81;;;2.26;58.65
47883;BME280;37739;50.350;7.578;2023-03-01T09:38:43;100664.84;;;2.23;59.63
47883;BME280;37739;50.350;7.578;2023-03-01T09:41:33;100660.28;;;2.50;59.16
47883;BME280;37739;50.350;7.578;2023-03-01T09:46:44;100660.28;;;2.81;58.18
47883;BME280;37739;50.350;7.578;2023-03-01T09:49:31;100656.53;;;3.08;56.76
47883;BME280;37739;50.350;7.578;2023-03-01T09:54:54;100652.09;;;3.15;55.61
47883;BME280;37739;50.350;7.578;2023-03-01T09:57:28;100659.22;;;3.20;56.72
47883;BME280;37739;50.350;7.578;2023-03-01T10:00:00;100648.13;;;3.62;55.83
47883;BME280;37739;50.350;7.578;2023-03-01T10:02:37;100648.03;;;3.60;55.26
47883;BME280;37739;50.350;7.578;2023-03-01T10:05:50;100640.88;;;3.66;55.74
47883;BME280;37739;50.350;7.578;2023-03-01T10:08:02;100648.09;;;3.40;55.72
47883;BME280;37739;50.350;7.578;2023-03-01T10:10:37;100642.69;;;3.57;55.77
47883;BME280;37739;50.350;7.578;2023-03-01T10:16:09;100636.63;;;3.77;55.70
47883;BME280;37739;50.350;7.578;2023-03-01T10:18:39;100631.38;;;3.64;55.05
47883;BME280;37739;50.350;7.578;2023-03-01T10:21:15;100627.00;;;3.95;54.96
47883;BME280;37739;50.350;7.578;2023-03-01T10:23:44;100621.91;;;4.17;53.14
47883;BME280;37739;50.350;7.578;2023-03-01T10:31:23;100597.16;;;4.48;53.56
47883;BME280;37739;50.350;7.578;2023-03-01T10:33:55;100590.75;;;4.77;52.88
47883;BME280;37739;50.350;7.578;2023-03-01T10:36:25;100585.13;;;5.05;51.70
47883;BME280;37739;50.350;7.578;2023-03-01T10:38:55;100572.69;;;5.21;52.22
47883;BME280;37739;50.350;7.578;2023-03-01T10:41:26;100573.94;;;5.15;50.52
47883;BME280;37739;50.350;7.578;2023-03-01T10:43:57;100571.16;;;5.35;51.15
47883;BME280;37739;50.350;7.578;2023-03-01T10:49:14;100573.56;;;5.45;50.11
47883;BME280;37739;50.350;7.578;2023-03-01T10:51:44;100566.88;;;5.59;50.37
47883;BME280;37739;50.350;7.578;2023-03-01T10:54:32;100566.13;;;5.85;49.11
47883;BME280;37739;50.350;7.578;2023-03-01T10:57:04;100566.19;;;6.24;48.73
47883;BME280;37739;50.350;7.578;2023-03-01T11:02:23;100567.47;;;6.44;47.88
47883;BME280;37739;50.350;7.578;2023-03-01T11:07:22;100551.91;;;6.79;47.55
47883;BME280;37739;50.350;7.578;2023-03-01T11:09:49;100548.38;;;6.64;46.63
47883;BME280;37739;50.350;7.578;2023-03-01T11:12:17;100539.06;;;6.51;46.26
47883;BME280;37739;50.350;7.578;2023-03-01T11:14:48;100544.84;;;6.88;46.51
47883;BME280;37739;50.350;7.578;2023-03-01T11:17:25;100535.25;;;6.98;45.01
47883;BME280;37739;50.350;7.578;2023-03-01T11:22:46;100532.81;;;6.73;45.06
47883;BME280;37739;50.350;7.578;2023-03-01T11:25:13;100527.69;;;6.73;45.16
47883;BME280;37739;50.350;7.578;2023-03-01T11:27:44;100533.06;;;6.91;45.27
47883;BME280;37739;50.350;7.578;2023-03-01T11:30:27;100523.69;;;7.31;43.88
47883;BME280;37739;50.350;7.578;2023-03-01T11:36:24;100520.25;;;7.31;44.12
47883;BME280;37739;50.350;7.578;2023-03-01T11:38:35;100514.88;;;7.82;43.90
47883;BME280;37739;50.350;7.578;2023-03-01T11:41:15;100512.97;;;7.65;42.86
47883;BME280;37739;50.350;7.578;2023-03-01T11:43:52;100515.00;;;7.42;43.15
47883;BME280;37739;50.350;7.578;2023-03-01T11:46:33;100510.31;;;7.63;42.24
47883;BME280;37739;50.350;7.578;2023-03-01T11:57:20;100495.34;;;8.13;41.88
47883;BME280;37739;50.350;7.578;2023-03-01T12:08:16;100485.34;;;8.62;40.91
47883;BME280;37739;50.350;7.578;2023-03-01T12:10:50;100476.84;;;8.47;40.22
47883;BME280;37739;50.350;7.578;2023-03-01T12:13:50;100472.41;;;8.59;40.39
47883;BME280;37739;50.350;7.578;2023-03-01T12:19:18;100474.44;;;8.35;41.49
47883;BME280;37739;50.350;7.578;2023-03-01T12:27:24;100459.94;;;9.28;38.38
47883;BME280;37739;50.350;7.578;2023-03-01T12:30:09;100445.72;;;9.18;39.22
47883;BME280;37739;50.350;7.578;2023-03-01T12:33:26;100443.97;;;9.00;40.26
47883;BME280;37739;50.350;7.578;2023-03-01T12:38:22;100433.53;;;8.81;39.09
47883;BME280;37739;50.350;7.578;2023-03-01T12:43:39;100421.06;;;8.87;38.84
47883;BME280;37739;50.350;7.578;2023-03-01T12:46:51;100416.13;;;9.23;39.33
47883;BME280;37739;50.350;7.578;2023-03-01T12:49:06;100410.69;;;9.66;37.48
47883;BME280;37739;50.350;7.578;2023-03-01T12:51:37;100414.38;;;9.55;38.42
47883;BME280;37739;50.350;7.578;2023-03-01T12:54:14;100413.72;;;9.59;37.60
47883;BME280;37739;50.350;7.578;2023-03-01T12:56:43;100414.47;;;9.40;37.05
47883;BME280;37739;50.350;7.578;2023-03-01T12:59:43;100401.13;;;9.63;37.43
47883;BME280;37739;50.350;7.578;2023-03-01T13:02:26;100394.38;;;9.48;36.46
47883;BME280;37739;50.350;7.578;2023-03-01T13:05:18;100385.25;;;9.36;38.07
47883;BME280;37739;50.350;7.578;2023-03-01T13:08:08;100378.50;;;10.07;35.93
47883;BME280;37739;50.350;7.578;2023-03-01T13:11:05;100382.13;;;9.76;35.88
47883;BME280;37739;50.350;7.578;2023-03-01T13:13:36;100379.44;;;9.22;36.56
47883;BME280;37739;50.350;7.578;2023-03-01T13:16:40;100376.47;;;9.66;36.15
47883;BME280;37739;50.350;7.578;2023-03-01T13:19:26;100376.66;;;9.52;35.39
47883;BME280;37739;50.350;7.578;2023-03-01T13:21:59;100373.06;;;9.83;37.27
47883;BME280;37739;50.350;7.578;2023-03-01T13:24:41;100374.09;;;10.22;36.05
47883;BME280;37739;50.350;7.578;2023-03-01T13:32:46;100367.66;;;10.49;34.33
47883;BME280;37739;50.350;7.578;2023-03-01T13:37:42;100360.53;;;9.71;35.16
47883;BME280;37739;50.350;7.578;2023-03-01T13:42:52;100361.09;;;10.36;35.44
47883;BME280;37739;50.350;7.578;2023-03-01T13:45:40;100362.13;;;10.39;34.08
47883;BME280;37739;50.350;7.578;2023-03-01T13:48:25;100353.28;;;9.98;34.11
47883;BME280;37739;50.350;7.578;2023-03-01T13:50:55;100357.00;;;9.69;34.55
47883;BME280;37739;50.350;7.578;2023-03-01T13:53:25;100348.81;;;9.94;34.07
47883;BME280;37739;50.350;7.578;2023-03-01T13:55:56;100339.59;;;9.80;34.85
47883;BME280;37739;50.350;7.578;2023-03-01T13:58:26;100340.34;;;9.95;34.84
47883;BME280;37739;50.350;7.578;2023-03-01T14:01:25;100340.41;;;9.44;33.74
47883;BME280;37739;50.350;7.578;2023-03-01T14:03:51;100330.47;;;9.16;34.87
47883;BME280;37739;50.350;7.578;2023-03-01T14:06:20;100329.84;;;9.04;34.62
47883;BME280;37739;50.350;7.578;2023-03-01T14:08:49;100339.44;;;8.75;36.20
47883;BME280;37739;50.350;7.578;2023-03-01T14:16:55;100330.88;;;8.58;35.59
47883;BME280;37739;50.350;7.578;2023-03-01T14:19:29;100332.41;;;8.40;36.88
47883;BME280;37739;50.350;7.578;2023-03-01T14:22:19;100330.72;;;8.55;36.62
47883;BME280;37739;50.350;7.578;2023-03-01T14:24:59;100334.41;;;8.60;37.49
47883;BME280;37739;50.350;7.578;2023-03-01T14:27:31;100327.91;;;8.67;37.87
47883;BME280;37739;50.350;7.578;2023-03-01T14:30:09;100326.34;;;8.38;37.87
47883;BME280;37739;50.350;7.578;2023-03-01T14:32:37;100327.41;;;8.26;38.47
47883;BME280;37739;50.350;7.578;2023-03-01T14:35:18;100324.53;;;8.20;38.47
47883;BME280;37739;50.350;7.578;2023-03-01T14:37:44;100325.00;;;8.13;38.61
47883;BME280;37739;50.350;7.578;2023-03-01T14:40:24;100322.97;;;8.07;38.32